Terminal Aerodrome Forecast
Issued by NWS Wilmington, OH

Current Version | Previous Version | Text Only | Print | Product List | Glossary Off
Versions: 1 2 3 4 5 6 7 8 9 10 11 12 13 14 15 16 17 18 19

000
FTUS41 KILN 152330
TAFCMH
TAF
KCMH 152330Z 1600/1624 22012KT 4SM BR VCSH OVC005
     FM160500 26014KT P6SM BKN040
     FM160900 27013KT P6SM BKN015
     FM161800 29012KT P6SM BKN025=

USA.gov is the U.S. government's official web portal to all federal, state and local government web resources and services.